createdAt,value
2023-03-23T16:18:38.687Z,100253.25
2023-03-23T16:23:33.712Z,100262.72
2023-03-23T16:41:00.013Z,100241.84
2023-03-23T16:44:10.656Z,100260.09
2023-03-23T16:48:05.598Z,100236.69
2023-03-23T16:51:24.450Z,100229.34
2023-03-23T16:54:36.828Z,100257.16
2023-03-23T16:57:44.150Z,100252.72
2023-03-23T17:05:04.562Z,100246.09
2023-03-23T17:08:43.279Z,100274.31
2023-03-23T17:11:57.482Z,100259.00
2023-03-23T17:15:18.659Z,100258.91
2023-03-23T17:18:51.309Z,100253.81
2023-03-23T17:21:56.633Z,100233.97
2023-03-23T17:25:15.683Z,100270.34
2023-03-23T17:28:57.599Z,100261.94
2023-03-23T17:32:26.234Z,100242.16
2023-03-23T17:39:44.881Z,100269.19
2023-03-23T17:43:08.303Z,100254.38
2023-03-23T17:50:42.229Z,100286.72
2023-03-23T18:01:37.262Z,100309.06
2023-03-23T18:05:46.006Z,100312.75
2023-03-23T18:09:26.233Z,100313.78
2023-03-23T18:12:39.442Z,100300.22
2023-03-23T18:16:17.214Z,100312.78
2023-03-23T18:19:53.755Z,100311.63
2023-03-23T18:22:59.600Z,100302.66
2023-03-23T18:26:18.329Z,100297.16
2023-03-23T18:30:20.557Z,100289.25
2023-03-23T18:33:29.891Z,100330.72
2023-03-23T18:36:43.262Z,100310.78
2023-03-23T18:40:05.380Z,100309.34
2023-03-23T18:43:20.840Z,100333.13
2023-03-23T18:46:54.508Z,100339.63
2023-03-23T18:50:12.118Z,100332.91
2023-03-23T18:53:20.712Z,100312.00
2023-03-23T18:56:48.334Z,100340.44
2023-03-23T18:59:59.088Z,100336.75
2023-03-23T19:03:16.100Z,100335.94
2023-03-23T19:06:37.380Z,100330.66
2023-03-23T19:10:08.820Z,100318.22
2023-03-23T19:13:24.873Z,100297.28
2023-03-23T19:16:40.635Z,100296.66
2023-03-23T19:21:12.539Z,100336.09
2023-03-23T19:29:45.430Z,100324.47
2023-03-23T19:33:54.514Z,100326.53
2023-03-23T19:37:17.502Z,100328.47
2023-03-23T19:40:42.582Z,100310.13
2023-03-23T19:43:58.075Z,100300.56
2023-03-23T19:47:23.354Z,100343.47
2023-03-23T19:50:41.510Z,100308.47
2023-03-23T19:54:07.599Z,100351.16
2023-03-23T19:57:23.252Z,100334.00
2023-03-23T20:00:29.074Z,100345.56
2023-03-23T20:03:39.516Z,100317.88
2023-03-23T20:07:03.191Z,100354.66
2023-03-23T20:10:33.494Z,100349.31
2023-03-23T20:13:52.819Z,100358.31
2023-03-23T20:17:09.754Z,100352.16
2023-03-23T20:20:29.583Z,100344.22
2023-03-23T20:27:08.076Z,100325.56
2023-03-23T20:30:43.450Z,100366.94
2023-03-23T20:34:00.856Z,100327.09
2023-03-23T20:37:13.137Z,100362.69
2023-03-23T20:44:18.360Z,100362.56
2023-03-23T20:47:25.146Z,100342.22
2023-03-23T20:50:34.436Z,100366.28
2023-03-23T20:53:45.913Z,100363.22
2023-03-23T20:57:09.907Z,100346.66
2023-03-23T21:00:16.715Z,100347.50
2023-03-23T21:03:23.365Z,100355.50
2023-03-23T21:06:32.478Z,100355.63
2023-03-23T21:09:49.669Z,100361.28
2023-03-23T21:12:53.970Z,100345.28
2023-03-23T21:15:58.172Z,100354.84
2023-03-23T21:19:15.681Z,100353.00
2023-03-23T21:22:25.711Z,100354.41
2023-03-23T21:25:38.505Z,100331.97
2023-03-23T21:28:45.988Z,100344.56
2023-03-23T21:32:08.688Z,100340.88
2023-03-23T21:35:15.569Z,100340.38
2023-03-23T21:38:33.277Z,100349.84
2023-03-23T21:41:42.146Z,100330.41
2023-03-23T21:44:49.983Z,100350.38
2023-03-23T21:48:07.121Z,100352.94
2023-03-23T21:51:14.118Z,100359.94
2023-03-23T21:57:47.082Z,100328.22
2023-03-23T22:04:14.256Z,100315.06
2023-03-23T22:07:32.182Z,100356.44
2023-03-23T22:10:43.606Z,100334.34
2023-03-23T22:14:19.002Z,100351.78
2023-03-23T22:18:50.694Z,100333.88
2023-03-23T22:21:51.627Z,100332.31
2023-03-23T22:25:16.218Z,100319.91
2023-03-23T22:28:31.131Z,100356.41
2023-03-23T22:32:07.286Z,100343.22
2023-03-23T22:35:31.424Z,100362.84
2023-03-23T22:39:15.348Z,100370.72
2023-03-23T22:42:49.346Z,100367.47
2023-03-23T22:46:17.514Z,100349.66
2023-03-23T22:53:43.833Z,100346.59
2023-03-23T22:57:07.095Z,100368.75
2023-03-23T23:03:41.598Z,100362.19
2023-03-23T23:07:06.676Z,100368.81
2023-03-23T23:11:15.308Z,100345.25
2023-03-23T23:14:53.724Z,100352.13
2023-03-23T23:18:52.614Z,100373.84
2023-03-23T23:22:19.893Z,100370.41
2023-03-23T23:25:42.127Z,100374.31
2023-03-23T23:29:44.196Z,100370.53
2023-03-23T23:40:57.997Z,100367.19
2023-03-23T23:53:50.400Z,100325.88
2023-03-23T23:57:27.652Z,100361.84
